Terminal Aerodrome Forecast
Issued by NWS

Home | Current Version | Previous Version | Text Only | Print | Product List | Glossary On
Versions: 1 2 3 4 5 6 7 8 9 10 11 12 13 14 15
396
FTUS46 KMTR 300520
TAFSNS
TAF
KSNS 300520Z 3006/3106 29004KT 1/2SM FG VV002
     FM301730 29008KT 6SM HZ FU FEW010 SCT120
     FM302100 29012KT 6SM HZ FEW010 SCT120
     FM310300 29010KT 4SM HZ BR OVC007=

USA.gov is the U.S. government's official web portal to all federal, state and local government web resources and services.